createdAt,value
2017-05-22T00:00:38.479Z,1018.76
2017-05-22T00:01:50.709Z,1018.75
2017-05-22T00:03:03.599Z,1018.79
2017-05-22T00:04:15.868Z,1018.8
2017-05-22T00:05:28.142Z,1018.76
2017-05-22T00:06:40.717Z,1018.73
2017-05-22T00:07:52.990Z,1018.74
2017-05-22T00:09:05.570Z,1018.76
2017-05-22T00:10:17.823Z,1018.76
2017-05-22T00:11:29.887Z,1018.77
2017-05-22T00:12:42.452Z,1018.74
2017-05-22T00:13:55.055Z,1018.78
2017-05-22T00:15:07.607Z,1018.77
2017-05-22T00:16:19.881Z,1018.71
2017-05-22T00:17:32.131Z,1018.72
2017-05-22T00:18:44.730Z,1018.72
2017-05-22T00:19:57.315Z,1018.76
2017-05-22T00:21:09.567Z,1018.73
2017-05-22T00:22:22.156Z,1018.74
2017-05-22T00:23:34.761Z,1018.73
2017-05-22T00:24:47.342Z,1018.76
2017-05-22T00:25:59.895Z,1018.74
2017-05-22T00:27:12.489Z,1018.75
2017-05-22T00:28:24.737Z,1018.72
2017-05-22T00:29:37.026Z,1018.7
2017-05-22T00:30:49.585Z,1018.73
2017-05-22T00:32:02.156Z,1018.75
2017-05-22T00:33:14.752Z,1018.72
2017-05-22T00:34:27.360Z,1018.72
2017-05-22T00:35:39.614Z,1018.75
2017-05-22T00:36:52.141Z,1018.71
2017-05-22T00:38:04.704Z,1018.67
2017-05-22T00:39:17.294Z,1018.7
2017-05-22T00:40:29.845Z,1018.71
2017-05-22T00:41:42.116Z,1018.67
2017-05-22T00:42:54.363Z,1018.69
2017-05-22T00:44:06.915Z,1018.69
2017-05-22T00:45:19.200Z,1018.66
2017-05-22T00:46:32.019Z,1018.73
2017-05-22T00:47:44.599Z,1018.71
2017-05-22T00:48:57.265Z,1018.7
2017-05-22T00:50:09.563Z,1018.7
2017-05-22T00:51:21.891Z,1018.68
2017-05-22T00:52:34.479Z,1018.73
2017-05-22T00:53:47.082Z,1018.71
2017-05-22T00:54:59.645Z,1018.69
2017-05-22T00:56:11.917Z,1018.72
2017-05-22T00:57:24.481Z,1018.68
2017-05-22T00:58:36.727Z,1018.72
2017-05-22T00:59:48.979Z,1018.68
2017-05-22T01:01:01.526Z,1018.71
2017-05-22T01:02:14.103Z,1018.68
2017-05-22T01:03:26.685Z,1018.66
2017-05-22T01:04:39.189Z,1018.67
2017-05-22T01:05:51.735Z,1018.68
2017-05-22T01:07:03.998Z,1018.67
2017-05-22T01:08:16.287Z,1018.69
2017-05-22T01:09:28.896Z,1018.68
2017-05-22T01:10:41.175Z,1018.71
2017-05-22T01:11:53.758Z,1018.67
2017-05-22T01:13:06.034Z,1018.69
2017-05-22T01:14:18.285Z,1018.73
2017-05-22T01:15:30.852Z,1018.69
2017-05-22T01:16:43.441Z,1018.71
2017-05-22T01:17:56.010Z,1018.7
2017-05-22T01:19:08.567Z,1018.71
2017-05-22T01:20:21.154Z,1018.68
2017-05-22T01:21:33.713Z,1018.64
2017-05-22T01:22:46.256Z,1018.65
2017-05-22T01:23:58.868Z,1018.67
2017-05-22T01:25:11.127Z,1018.68
2017-05-22T01:26:23.672Z,1018.67
2017-05-22T01:27:35.947Z,1018.66
2017-05-22T01:28:48.514Z,1018.67
2017-05-22T01:30:01.047Z,1018.65
2017-05-22T01:31:13.606Z,1018.69
2017-05-22T01:32:25.851Z,1018.65
2017-05-22T01:33:38.434Z,1018.68
2017-05-22T01:34:51.029Z,1018.66
2017-05-22T01:36:03.595Z,1018.65
2017-05-22T01:37:16.185Z,1018.62
2017-05-22T01:38:28.156Z,1018.62
2017-05-22T01:39:40.744Z,1018.63
2017-05-22T01:40:53.641Z,1018.63
2017-05-22T01:42:05.949Z,1018.63
2017-05-22T01:43:18.164Z,1018.64
2017-05-22T01:44:30.423Z,1018.69
2017-05-22T01:45:42.675Z,1018.66
2017-05-22T01:46:55.221Z,1018.66
2017-05-22T01:48:07.766Z,1018.71
2017-05-22T01:49:20.012Z,1018.66
2017-05-22T01:50:32.560Z,1018.66
2017-05-22T01:51:44.834Z,1018.63
2017-05-22T01:52:57.375Z,1018.63
2017-05-22T01:54:09.988Z,1018.6
2017-05-22T01:55:21.898Z,1018.64
2017-05-22T01:56:34.188Z,1018.62
2017-05-22T01:57:46.436Z,1018.63
2017-05-22T01:58:59.023Z,1018.59
2017-05-22T02:00:11.575Z,1018.61
2017-05-22T02:01:24.146Z,1018.59
2017-05-22T02:02:36.700Z,1018.58
2017-05-22T02:03:49.281Z,1018.61
2017-05-22T02:05:01.836Z,1018.58
2017-05-22T02:06:13.798Z,1018.61
2017-05-22T02:07:26.330Z,1018.58
2017-05-22T02:08:38.898Z,1018.59
2017-05-22T02:09:51.435Z,1018.62
2017-05-22T02:11:03.669Z,1018.59
2017-05-22T02:12:16.186Z,1018.57
2017-05-22T02:13:28.712Z,1018.57
2017-05-22T02:14:41.319Z,1018.55
2017-05-22T02:15:53.871Z,1018.54
2017-05-22T02:17:06.142Z,1018.52
2017-05-22T02:18:18.421Z,1018.54
2017-05-22T02:19:31.261Z,1018.47
2017-05-22T02:20:43.505Z,1018.49
2017-05-22T02:21:56.052Z,1018.48
2017-05-22T02:23:08.349Z,1018.5
2017-05-22T02:24:20.869Z,1018.51
2017-05-22T02:25:33.396Z,1018.49
2017-05-22T02:26:45.961Z,1018.52
2017-05-22T02:27:58.238Z,1018.55
2017-05-22T02:29:10.884Z,1018.47
2017-05-22T02:30:23.407Z,1018.46
2017-05-22T02:31:35.619Z,1018.45
2017-05-22T02:32:48.182Z,1018.44
2017-05-22T02:34:00.786Z,1018.37
2017-05-22T02:35:13.081Z,1018.39
2017-05-22T02:36:25.621Z,1018.41
2017-05-22T02:37:38.180Z,1018.35
2017-05-22T02:38:50.413Z,1018.35
2017-05-22T02:40:02.984Z,1018.37
2017-05-22T02:41:15.510Z,1018.39
2017-05-22T02:42:28.076Z,1018.4
2017-05-22T02:43:40.333Z,1018.4
2017-05-22T02:44:52.899Z,1018.35
2017-05-22T02:46:05.727Z,1018.39
2017-05-22T02:47:17.991Z,1018.44
2017-05-22T02:48:30.544Z,1018.43
2017-05-22T02:49:42.794Z,1018.41
2017-05-22T02:50:55.104Z,1018.43
2017-05-22T02:52:07.625Z,1018.37
2017-05-22T02:53:19.896Z,1018.43
2017-05-22T02:54:32.141Z,1018.4
2017-05-22T02:55:44.696Z,1018.44
2017-05-22T02:56:57.257Z,1018.47
2017-05-22T02:58:09.861Z,1018.47
2017-05-22T02:59:22.444Z,1018.42
2017-05-22T03:00:34.696Z,1018.45
2017-05-22T03:01:47.236Z,1018.44
2017-05-22T03:02:59.789Z,1018.4
2017-05-22T03:04:12.346Z,1018.4
2017-05-22T03:05:24.605Z,1018.42
2017-05-22T03:06:37.193Z,1018.4
2017-05-22T03:07:49.979Z,1018.39
2017-05-22T03:09:02.543Z,1018.39
2017-05-22T03:10:15.106Z,1018.38
2017-05-22T03:11:27.359Z,1018.38
2017-05-22T03:12:39.639Z,1018.41
2017-05-22T03:13:52.244Z,1018.43
2017-05-22T03:15:04.846Z,1018.39
2017-05-22T03:16:17.393Z,1018.4
2017-05-22T03:17:29.664Z,1018.36
2017-05-22T03:18:41.942Z,1018.38
2017-05-22T03:19:54.506Z,1018.37
2017-05-22T03:21:07.052Z,1018.36
2017-05-22T03:22:19.578Z,1018.4
2017-05-22T03:23:31.544Z,1018.39
2017-05-22T03:24:44.074Z,1018.39
2017-05-22T03:25:56.337Z,1018.37
2017-05-22T03:27:08.274Z,1018.37
2017-05-22T03:28:20.834Z,1018.33
2017-05-22T03:29:33.726Z,1018.33
2017-05-22T03:30:46.302Z,1018.39
2017-05-22T03:31:58.840Z,1018.34
2017-05-22T03:33:11.460Z,1018.36
2017-05-22T03:34:24.024Z,1018.35
2017-05-22T03:35:36.552Z,1018.32
2017-05-22T03:36:49.116Z,1018.34
2017-05-22T03:38:01.662Z,1018.39
2017-05-22T03:39:14.172Z,1018.37
2017-05-22T03:40:26.437Z,1018.37
2017-05-22T03:41:38.975Z,1018.42
2017-05-22T03:42:51.505Z,1018.44
2017-05-22T03:44:04.031Z,1018.43
2017-05-22T03:45:16.295Z,1018.46
2017-05-22T03:46:28.858Z,1018.43
2017-05-22T03:47:41.437Z,1018.46
2017-05-22T03:48:53.981Z,1018.47
2017-05-22T03:50:06.528Z,1018.45
2017-05-22T03:51:18.776Z,1018.5
2017-05-22T03:52:31.380Z,1018.48
2017-05-22T03:53:43.967Z,1018.45
2017-05-22T03:54:56.487Z,1018.44
2017-05-22T03:56:09.057Z,1018.51
2017-05-22T03:57:21.653Z,1018.51
2017-05-22T03:58:34.207Z,1018.49
2017-05-22T03:59:46.778Z,1018.48
2017-05-22T04:00:59.345Z,1018.48
2017-05-22T04:02:11.864Z,1018.52
2017-05-22T04:03:24.389Z,1018.49
2017-05-22T04:04:36.629Z,1018.51
2017-05-22T04:05:49.157Z,1018.54
2017-05-22T04:07:01.727Z,1018.52
2017-05-22T04:08:14.592Z,1018.55
2017-05-22T04:09:27.190Z,1018.57
2017-05-22T04:10:39.459Z,1018.51
2017-05-22T04:11:52.022Z,1018.51
2017-05-22T04:13:04.599Z,1018.5
2017-05-22T04:14:17.197Z,1018.49
2017-05-22T04:15:29.718Z,1018.52
2017-05-22T04:16:41.662Z,1018.5
2017-05-22T04:17:54.235Z,1018.52
2017-05-22T04:19:06.862Z,1018.51
2017-05-22T04:20:19.408Z,1018.51
2017-05-22T04:21:31.929Z,1018.53
2017-05-22T04:22:44.200Z,1018.49
2017-05-22T04:23:56.738Z,1018.53
2017-05-22T04:25:08.976Z,1018.49
2017-05-22T04:26:21.237Z,1018.47
2017-05-22T04:27:33.507Z,1018.53
2017-05-22T04:28:45.448Z,1018.57
2017-05-22T04:29:57.713Z,1018.57
2017-05-22T04:31:10.281Z,1018.59
2017-05-22T04:32:22.553Z,1018.57
2017-05-22T04:33:35.234Z,1018.55
2017-05-22T04:34:48.138Z,1018.59
2017-05-22T04:36:00.372Z,1018.61
2017-05-22T04:37:12.937Z,1018.57
2017-05-22T04:38:25.152Z,1018.57
2017-05-22T04:39:37.386Z,1018.59
2017-05-22T04:40:49.965Z,1018.59
2017-05-22T04:42:02.220Z,1018.58
2017-05-22T04:43:14.773Z,1018.59
2017-05-22T04:44:27.344Z,1018.6
2017-05-22T04:45:39.848Z,1018.62
2017-05-22T04:46:52.411Z,1018.64
2017-05-22T04:48:04.963Z,1018.63
2017-05-22T04:49:16.946Z,1018.69
2017-05-22T04:50:29.208Z,1018.67
2017-05-22T04:51:41.763Z,1018.64
2017-05-22T04:52:54.324Z,1018.64
2017-05-22T04:54:06.592Z,1018.61
2017-05-22T04:55:19.114Z,1018.57
2017-05-22T04:56:31.651Z,1018.62
2017-05-22T04:57:43.875Z,1018.6
2017-05-22T04:58:56.427Z,1018.59
2017-05-22T05:00:08.992Z,1018.55
2017-05-22T05:01:21.530Z,1018.55
2017-05-22T05:02:33.771Z,1018.55
2017-05-22T05:03:46.282Z,1018.55
2017-05-22T05:04:58.850Z,1018.54
2017-05-22T05:06:10.852Z,1018.53
2017-05-22T05:07:23.123Z,1018.53
2017-05-22T05:08:35.419Z,1018.51
2017-05-22T05:09:48.003Z,1018.47
2017-05-22T05:11:00.554Z,1018.5
2017-05-22T05:12:13.093Z,1018.46
2017-05-22T05:13:25.346Z,1018.48
2017-05-22T05:14:37.899Z,1018.53
2017-05-22T05:15:50.163Z,1018.49
2017-05-22T05:17:02.758Z,1018.53
2017-05-22T05:18:15.273Z,1018.53
2017-05-22T05:19:27.543Z,1018.53
2017-05-22T05:20:40.098Z,1018.54
2017-05-22T05:21:52.074Z,1018.49
2017-05-22T05:23:04.045Z,1018.47
2017-05-22T05:24:16.626Z,1018.48
2017-05-22T05:25:29.212Z,1018.43
2017-05-22T05:26:41.451Z,1018.43
2017-05-22T05:27:54.004Z,1018.44
2017-05-22T05:29:06.599Z,1018.45
2017-05-22T05:30:18.883Z,1018.43
2017-05-22T05:31:31.410Z,1018.42
2017-05-22T05:32:44.029Z,1018.42
2017-05-22T05:33:56.327Z,1018.44
2017-05-22T05:35:08.904Z,1018.43
2017-05-22T05:36:21.443Z,1018.46
2017-05-22T05:37:34.016Z,1018.46
2017-05-22T05:38:46.560Z,1018.5
2017-05-22T05:39:59.438Z,1018.48
2017-05-22T05:41:11.709Z,1018.52
2017-05-22T05:42:24.273Z,1018.44
2017-05-22T05:43:36.872Z,1018.46
2017-05-22T05:44:49.415Z,1018.47
2017-05-22T05:46:01.935Z,1018.46
2017-05-22T05:47:14.507Z,1018.5
2017-05-22T05:48:27.077Z,1018.43
2017-05-22T05:49:39.656Z,1018.43
2017-05-22T05:50:52.269Z,1018.38
2017-05-22T05:52:04.522Z,1018.39
2017-05-22T05:53:16.867Z,1018.35
2017-05-22T05:54:29.164Z,1018.33
2017-05-22T05:55:41.802Z,1018.38
2017-05-22T05:56:54.024Z,1018.35
2017-05-22T05:58:06.595Z,1018.31
2017-05-22T05:59:18.889Z,1018.29
2017-05-22T06:00:31.493Z,1018.28
2017-05-22T06:01:44.033Z,1018.28
2017-05-22T06:02:56.560Z,1018.3
2017-05-22T06:04:09.131Z,1018.27
2017-05-22T06:05:21.705Z,1018.24
2017-05-22T06:06:34.341Z,1018.29
2017-05-22T06:07:46.888Z,1018.25
2017-05-22T06:08:59.439Z,1018.25
2017-05-22T06:10:11.679Z,1018.25
2017-05-22T06:11:24.207Z,1018.27
2017-05-22T06:12:36.731Z,1018.2
2017-05-22T06:13:49.015Z,1018.2
2017-05-22T06:15:01.594Z,1018.19
2017-05-22T06:16:14.184Z,1018.25
2017-05-22T06:17:26.780Z,1018.25
2017-05-22T06:18:39.683Z,1018.26
2017-05-22T06:19:52.296Z,1018.38
2017-05-22T06:21:04.826Z,1018.42
2017-05-22T06:22:17.435Z,1018.5
2017-05-22T06:23:29.691Z,1018.6
2017-05-22T06:24:41.962Z,1018.44
2017-05-22T06:25:54.277Z,1018.43
2017-05-22T06:27:06.879Z,1018.61
2017-05-22T06:28:19.168Z,1018.43
2017-05-22T06:29:31.413Z,1018.43
2017-05-22T06:30:43.978Z,1018.44
2017-05-22T06:31:56.540Z,1018.62
2017-05-22T06:33:08.807Z,1018.7
2017-05-22T06:34:21.397Z,1018.78
2017-05-22T06:35:33.942Z,1018.75
2017-05-22T06:36:46.171Z,1018.83
2017-05-22T06:37:58.691Z,1018.85
2017-05-22T06:39:11.265Z,1018.91
2017-05-22T06:40:23.834Z,1018.84
2017-05-22T06:41:36.121Z,1018.88
2017-05-22T06:42:48.750Z,1018.85
2017-05-22T06:44:01.346Z,1018.91
2017-05-22T06:45:13.960Z,1018.81
2017-05-22T06:46:26.509Z,1018.83
2017-05-22T06:47:39.030Z,1018.83
2017-05-22T06:48:50.998Z,1018.86
2017-05-22T06:50:03.603Z,1018.77
2017-05-22T06:51:16.158Z,1018.75
2017-05-22T06:52:28.411Z,1018.76
2017-05-22T06:53:40.668Z,1018.72
2017-05-22T06:54:52.331Z,1018.75
2017-05-22T06:56:04.576Z,1018.72
2017-05-22T06:57:16.850Z,1018.67
2017-05-22T06:58:29.146Z,1018.68
2017-05-22T06:59:41.398Z,1018.53
2017-05-22T07:00:53.955Z,1018.43
2017-05-22T07:02:06.513Z,1018.4
2017-05-22T07:03:18.791Z,1018.36
2017-05-22T07:04:31.070Z,1018.39
2017-05-22T07:05:43.620Z,1018.38
2017-05-22T07:06:55.838Z,1018.38
2017-05-22T07:08:08.383Z,1018.34
2017-05-22T07:09:21.033Z,1018.36
2017-05-22T07:10:33.616Z,1018.4
2017-05-22T07:11:45.844Z,1018.39
2017-05-22T07:12:58.440Z,1018.33
2017-05-22T07:14:11.046Z,1018.28
2017-05-22T07:15:23.625Z,1018.27
2017-05-22T07:16:36.205Z,1018.25
2017-05-22T07:17:48.799Z,1018.26
2017-05-22T07:19:01.354Z,1018.25
2017-05-22T07:20:13.635Z,1018.24
2017-05-22T07:21:26.193Z,1018.25
2017-05-22T07:22:38.783Z,1018.22
2017-05-22T07:23:51.686Z,1018.2
2017-05-22T07:25:04.259Z,1018.2
2017-05-22T07:26:16.188Z,1018.18
2017-05-22T07:27:28.709Z,1018.19
2017-05-22T07:28:41.281Z,1018.19
2017-05-22T07:29:53.533Z,1018.15
2017-05-22T07:31:05.482Z,1018.15
2017-05-22T07:32:17.728Z,1018.16
2017-05-22T07:33:29.990Z,1018.14
2017-05-22T07:34:42.535Z,1018.11
2017-05-22T07:35:55.116Z,1018.13
2017-05-22T07:37:07.728Z,1018.12
2017-05-22T07:38:19.974Z,1018.09
2017-05-22T07:39:32.826Z,1018.09
2017-05-22T07:40:45.128Z,1018.07
2017-05-22T07:41:57.418Z,1018.08
2017-05-22T07:43:09.976Z,1018.06
2017-05-22T07:44:22.261Z,1018.02
2017-05-22T07:45:34.231Z,1018.02
2017-05-22T07:46:46.488Z,1017.99
2017-05-22T07:47:59.023Z,1017.98
2017-05-22T07:49:11.611Z,1018.01
2017-05-22T07:50:24.299Z,1017.96
2017-05-22T07:51:36.883Z,1017.95
2017-05-22T07:52:48.882Z,1017.92
2017-05-22T07:54:01.494Z,1017.97
2017-05-22T07:55:14.021Z,1017.94
2017-05-22T07:56:26.593Z,1017.92
2017-05-22T07:57:39.194Z,1017.9
2017-05-22T07:58:51.491Z,1017.88
2017-05-22T08:00:03.723Z,1017.84
2017-05-22T08:01:16.026Z,1017.77
2017-05-22T08:02:28.596Z,1017.8
2017-05-22T08:03:40.899Z,1017.82
2017-05-22T08:04:53.444Z,1017.76
2017-05-22T08:06:06.017Z,1017.79
2017-05-22T08:07:18.587Z,1017.77
2017-05-22T08:08:31.145Z,1017.77
2017-05-22T08:09:43.698Z,1017.81
2017-05-22T08:10:56.238Z,1017.81
2017-05-22T08:12:08.783Z,1017.85
2017-05-22T08:13:21.329Z,1017.86
2017-05-22T08:14:33.884Z,1017.85
2017-05-22T08:15:46.496Z,1017.81
2017-05-22T08:16:59.074Z,1017.8
2017-05-22T08:18:11.656Z,1017.73
2017-05-22T08:19:23.966Z,1017.72
2017-05-22T08:20:36.240Z,1017.85
2017-05-22T08:21:48.489Z,1017.82
2017-05-22T08:23:01.046Z,1017.76
2017-05-22T08:24:13.349Z,1017.73
2017-05-22T08:25:25.932Z,1017.69
2017-05-22T08:26:38.540Z,1017.69
2017-05-22T08:27:50.786Z,1017.7
2017-05-22T08:29:03.408Z,1017.63
2017-05-22T08:30:15.979Z,1017.58
2017-05-22T08:31:28.569Z,1017.54
2017-05-22T08:32:40.853Z,1017.56
2017-05-22T08:33:52.849Z,1017.57
2017-05-22T08:35:05.418Z,1017.55
2017-05-22T08:36:17.409Z,1017.56
2017-05-22T08:37:29.647Z,1017.52
2017-05-22T08:38:41.643Z,1017.53
2017-05-22T08:39:53.946Z,1017.52
2017-05-22T08:41:06.217Z,1017.48
2017-05-22T08:42:18.819Z,1017.53
2017-05-22T08:43:31.409Z,1017.48
2017-05-22T08:44:43.388Z,1017.5
2017-05-22T08:45:55.961Z,1017.48
2017-05-22T08:47:08.604Z,1017.5
2017-05-22T08:48:20.561Z,1017.44
2017-05-22T08:49:32.826Z,1017.48
2017-05-22T08:50:45.443Z,1017.46
2017-05-22T08:51:58.029Z,1017.41
2017-05-22T08:53:09.704Z,1017.5
2017-05-22T08:54:22.274Z,1017.44
2017-05-22T08:55:34.536Z,1017.4
2017-05-22T08:56:46.203Z,1017.44
2017-05-22T08:57:58.760Z,1017.43
2017-05-22T08:59:11.364Z,1017.46
2017-05-22T09:00:23.928Z,1017.4
2017-05-22T09:01:36.499Z,1017.37
2017-05-22T09:02:49.103Z,1017.38
2017-05-22T09:04:01.714Z,1017.44
2017-05-22T09:05:14.320Z,1017.34
2017-05-22T09:06:26.611Z,1017.35
2017-05-22T09:07:39.165Z,1017.39
2017-05-22T09:08:51.442Z,1017.44
2017-05-22T09:10:03.661Z,1017.34
2017-05-22T09:11:15.925Z,1017.31
2017-05-22T09:12:28.493Z,1017.41
2017-05-22T09:13:41.164Z,1017.41
2017-05-22T09:14:53.154Z,1017.34
2017-05-22T09:16:05.431Z,1017.3
2017-05-22T09:17:17.925Z,1017.29
2017-05-22T09:18:30.216Z,1017.38
2017-05-22T09:19:42.238Z,1017.35
2017-05-22T09:20:54.512Z,1017.42
2017-05-22T09:22:07.089Z,1017.44
2017-05-22T09:23:19.637Z,1017.4
2017-05-22T09:24:32.223Z,1017.41
2017-05-22T09:25:44.747Z,1017.4
2017-05-22T09:26:57.318Z,1017.36
2017-05-22T09:28:09.890Z,1017.29
2017-05-22T09:29:21.823Z,1017.23
2017-05-22T09:30:34.082Z,1017.21
2017-05-22T09:31:46.646Z,1017.31
2017-05-22T09:32:58.898Z,1017.34
2017-05-22T09:34:11.469Z,1017.28
2017-05-22T09:35:23.741Z,1017.22
2017-05-22T09:36:36.291Z,1017.28
2017-05-22T09:37:48.582Z,1017.25
2017-05-22T09:39:01.171Z,1017.23
2017-05-22T09:40:13.741Z,1017.26
2017-05-22T09:41:26.345Z,1017.22
2017-05-22T09:42:38.901Z,1017.3
2017-05-22T09:43:51.463Z,1017.38
2017-05-22T09:45:04.025Z,1017.39
2017-05-22T09:46:16.632Z,1017.38
2017-05-22T09:47:29.250Z,1017.47
2017-05-22T09:48:41.864Z,1017.4
2017-05-22T09:49:54.378Z,1017.41
2017-05-22T09:51:06.629Z,1017.38
2017-05-22T09:52:19.208Z,1017.33
2017-05-22T09:53:31.823Z,1017.28
2017-05-22T09:54:44.436Z,1017.2
2017-05-22T09:55:57.017Z,1017.08
2017-05-22T09:57:08.963Z,1017.13
2017-05-22T09:58:21.281Z,1017.19
2017-05-22T09:59:33.845Z,1017.2
2017-05-22T10:00:46.366Z,1017.17
2017-05-22T10:01:58.643Z,1017.04
2017-05-22T10:03:10.945Z,1016.97
2017-05-22T10:04:23.272Z,1016.9
2017-05-22T10:05:35.205Z,1016.95
2017-05-22T10:06:47.520Z,1016.93
2017-05-22T10:08:00.098Z,1016.94
2017-05-22T10:09:12.411Z,1016.93
2017-05-22T10:10:24.721Z,1016.93
2017-05-22T10:11:36.710Z,1017.05
2017-05-22T10:12:49.370Z,1017.09
2017-05-22T10:14:01.966Z,1017.02
2017-05-22T10:15:14.559Z,1016.94
2017-05-22T10:16:27.153Z,1016.92
2017-05-22T10:17:39.108Z,1016.94
2017-05-22T10:18:51.385Z,1016.97
2017-05-22T10:20:03.999Z,1016.88
2017-05-22T10:21:15.921Z,1016.91
2017-05-22T10:22:28.152Z,1016.85
2017-05-22T10:23:40.729Z,1016.94
2017-05-22T10:24:53.294Z,1017.02
2017-05-22T10:26:05.884Z,1016.88
2017-05-22T10:27:18.182Z,1016.94
2017-05-22T10:28:30.787Z,1016.96
2017-05-22T10:29:43.075Z,1017.01
2017-05-22T10:30:55.670Z,1017.01
2017-05-22T10:32:07.917Z,1016.92
2017-05-22T10:33:20.474Z,1016.91
2017-05-22T10:34:32.767Z,1017
2017-05-22T10:35:45.007Z,1016.95
2017-05-22T10:36:56.683Z,1016.9
2017-05-22T10:38:08.946Z,1016.81
2017-05-22T10:39:21.568Z,1016.74
2017-05-22T10:40:34.248Z,1016.77
2017-05-22T10:41:46.560Z,1016.81
2017-05-22T10:42:59.132Z,1016.74
2017-05-22T10:44:11.669Z,1016.72
2017-05-22T10:45:24.214Z,1016.71
2017-05-22T10:46:36.766Z,1016.75
2017-05-22T10:47:49.312Z,1016.69
2017-05-22T10:49:01.608Z,1016.74
2017-05-22T10:50:13.604Z,1016.74
2017-05-22T10:51:26.235Z,1016.82
2017-05-22T10:52:38.830Z,1016.64
2017-05-22T10:53:51.419Z,1016.63
2017-05-22T10:55:03.385Z,1016.58
2017-05-22T10:56:15.701Z,1016.56
2017-05-22T10:57:27.961Z,1016.58
2017-05-22T10:58:40.270Z,1016.58
2017-05-22T10:59:52.848Z,1016.61
2017-05-22T11:01:05.468Z,1016.56
2017-05-22T11:02:18.056Z,1016.51
2017-05-22T11:03:30.036Z,1016.53
2017-05-22T11:04:42.583Z,1016.53
2017-05-22T11:05:55.145Z,1016.53
2017-05-22T11:07:07.697Z,1016.52
2017-05-22T11:08:20.272Z,1016.5
2017-05-22T11:09:32.889Z,1016.46
2017-05-22T11:10:45.435Z,1016.37
2017-05-22T11:11:57.999Z,1016.36
2017-05-22T11:13:09.653Z,1016.42
2017-05-22T11:14:22.168Z,1016.39
2017-05-22T11:15:33.837Z,1016.37
2017-05-22T11:16:46.146Z,1016.26
2017-05-22T11:17:58.453Z,1016.21
2017-05-22T11:19:10.108Z,1016.24
2017-05-22T11:20:22.403Z,1016.29
2017-05-22T11:21:34.666Z,1016.36
2017-05-22T11:22:46.614Z,1016.27
2017-05-22T11:23:59.187Z,1016.24
2017-05-22T11:25:11.437Z,1016.25
2017-05-22T11:26:24.032Z,1016.17
2017-05-22T11:27:36.640Z,1016.22
2017-05-22T11:28:48.624Z,1016.24
2017-05-22T11:30:00.644Z,1016.23
2017-05-22T11:31:13.209Z,1016.22
2017-05-22T11:32:25.768Z,1016.19
2017-05-22T11:33:38.358Z,1016.19
2017-05-22T11:34:50.315Z,1016.17
2017-05-22T11:36:02.925Z,1016.14
2017-05-22T11:37:15.521Z,1016.1
2017-05-22T11:38:28.090Z,1016.13
2017-05-22T11:39:40.440Z,1016.12
2017-05-22T11:40:52.418Z,1016.18
2017-05-22T11:42:04.955Z,1016.14
2017-05-22T11:43:16.926Z,1016.15
2017-05-22T11:44:29.249Z,1016.13
2017-05-22T11:45:41.571Z,1016.1
2017-05-22T11:46:53.541Z,1016.11
2017-05-22T11:48:06.115Z,1016.06
2017-05-22T11:49:18.762Z,1016.04
2017-05-22T11:50:31.326Z,1016.03
2017-05-22T11:51:43.896Z,1016.06
2017-05-22T11:52:56.192Z,1016.1
2017-05-22T11:54:08.167Z,1016.08
2017-05-22T11:55:20.711Z,1016.12
2017-05-22T11:56:33.032Z,1016.11
2017-05-22T11:57:45.650Z,1016.06
2017-05-22T11:58:58.227Z,1016.07
2017-05-22T12:00:10.217Z,1016.03
2017-05-22T12:01:22.596Z,1015.99
2017-05-22T12:02:34.903Z,1016
2017-05-22T12:03:47.206Z,1015.98
2017-05-22T12:04:59.476Z,1015.97
2017-05-22T12:06:11.772Z,1016
2017-05-22T12:07:24.017Z,1015.96
2017-05-22T12:08:36.358Z,1015.92
2017-05-22T12:09:48.635Z,1015.95
2017-05-22T12:11:00.907Z,1015.89
2017-05-22T12:12:13.139Z,1015.88
2017-05-22T12:13:25.754Z,1015.92
2017-05-22T12:14:38.327Z,1015.92
2017-05-22T12:15:50.896Z,1015.85
2017-05-22T12:17:03.467Z,1015.85
2017-05-22T12:18:16.073Z,1015.91
2017-05-22T12:19:28.335Z,1015.94
2017-05-22T12:20:40.599Z,1015.95
2017-05-22T12:21:52.856Z,1015.88
2017-05-22T12:23:05.147Z,1015.84
2017-05-22T12:24:17.718Z,1015.78
2017-05-22T12:25:29.989Z,1015.76
2017-05-22T12:26:42.596Z,1015.74
2017-05-22T12:27:54.855Z,1015.72
2017-05-22T12:29:06.827Z,1015.69
2017-05-22T12:30:19.124Z,1015.69
2017-05-22T12:31:31.443Z,1015.68
2017-05-22T12:32:43.990Z,1015.66
2017-05-22T12:33:56.585Z,1015.67
2017-05-22T12:35:08.943Z,1015.63
2017-05-22T12:36:21.529Z,1015.65
2017-05-22T12:37:34.099Z,1015.69
2017-05-22T12:38:46.688Z,1015.63
2017-05-22T12:39:59.052Z,1015.61
2017-05-22T12:41:11.023Z,1015.56
2017-05-22T12:42:23.299Z,1015.63
2017-05-22T12:43:35.878Z,1015.61
2017-05-22T12:44:48.482Z,1015.55
2017-05-22T12:46:00.438Z,1015.51
2017-05-22T12:47:13.009Z,1015.5
2017-05-22T12:48:25.636Z,1015.37
2017-05-22T12:49:38.252Z,1015.35
2017-05-22T12:50:50.846Z,1015.26
2017-05-22T12:52:02.559Z,1015.27
2017-05-22T12:53:15.148Z,1015.28
2017-05-22T12:54:27.752Z,1015.31
2017-05-22T12:55:40.055Z,1015.26
2017-05-22T12:56:52.033Z,1015.33
2017-05-22T12:58:04.640Z,1015.38
2017-05-22T12:59:16.935Z,1015.39
2017-05-22T13:00:28.894Z,1015.34
2017-05-22T13:01:41.453Z,1015.31
2017-05-22T13:02:54.028Z,1015.22
2017-05-22T13:04:06.294Z,1015.2
2017-05-22T13:05:18.251Z,1015.23
2017-05-22T13:06:30.812Z,1015.25
2017-05-22T13:07:43.402Z,1015.19
2017-05-22T13:08:55.709Z,1015.2
2017-05-22T13:10:07.998Z,1015.08
2017-05-22T13:11:20.545Z,1015.06
2017-05-22T13:12:33.090Z,1015.07
2017-05-22T13:13:45.650Z,1015.12
2017-05-22T13:14:58.232Z,1015.13
2017-05-22T13:16:10.815Z,1015.2
2017-05-22T13:17:23.438Z,1015.24
2017-05-22T13:18:36.046Z,1015.22
2017-05-22T13:19:48.349Z,1015.19
2017-05-22T13:21:00.598Z,1015.07
2017-05-22T13:22:13.121Z,1015.09
2017-05-22T13:23:24.834Z,1015.05
2017-05-22T13:24:37.461Z,1015.02
2017-05-22T13:25:50.134Z,1015.04
2017-05-22T13:27:02.833Z,1015.04
2017-05-22T13:28:15.393Z,1014.99
2017-05-22T13:29:27.366Z,1014.98
2017-05-22T13:30:39.985Z,1014.95
2017-05-22T13:31:52.282Z,1014.88
2017-05-22T13:33:04.566Z,1014.88
2017-05-22T13:34:17.125Z,1014.88
2017-05-22T13:35:29.726Z,1014.87
2017-05-22T13:36:42.340Z,1014.9
2017-05-22T13:37:54.654Z,1014.83
2017-05-22T13:39:06.945Z,1014.85
2017-05-22T13:40:19.536Z,1014.81
2017-05-22T13:41:31.557Z,1014.75
2017-05-22T13:42:43.824Z,1014.78
2017-05-22T13:43:56.501Z,1014.79
2017-05-22T13:45:09.043Z,1014.74
2017-05-22T13:46:21.588Z,1014.75
2017-05-22T13:47:34.177Z,1014.77
2017-05-22T13:48:46.761Z,1014.73
2017-05-22T13:49:59.369Z,1014.75
2017-05-22T13:51:11.361Z,1014.73
2017-05-22T13:52:24.012Z,1014.71
2017-05-22T13:53:36.332Z,1014.56
2017-05-22T13:54:48.610Z,1014.61
2017-05-22T13:56:00.851Z,1014.53
2017-05-22T13:57:13.170Z,1014.54
2017-05-22T13:58:25.465Z,1014.56
2017-05-22T13:59:37.713Z,1014.55
2017-05-22T14:00:49.972Z,1014.61
2017-05-22T14:02:01.950Z,1014.57
2017-05-22T14:03:14.200Z,1014.5
2017-05-22T14:04:26.834Z,1014.63
2017-05-22T14:05:39.124Z,1014.53
2017-05-22T14:06:51.392Z,1014.58
2017-05-22T14:08:03.338Z,1014.57
2017-05-22T14:09:15.674Z,1014.53
2017-05-22T14:10:28.244Z,1014.43
2017-05-22T14:11:40.831Z,1014.56
2017-05-22T14:12:53.118Z,1014.54
2017-05-22T14:14:05.749Z,1014.6
2017-05-22T14:15:18.034Z,1014.5
2017-05-22T14:16:30.607Z,1014.56
2017-05-22T14:17:43.206Z,1014.49
2017-05-22T14:18:55.772Z,1014.53
2017-05-22T14:20:07.770Z,1014.48
2017-05-22T14:21:20.043Z,1014.44
2017-05-22T14:22:32.616Z,1014.41
2017-05-22T14:23:45.218Z,1014.38
2017-05-22T14:24:57.178Z,1014.36
2017-05-22T14:26:09.741Z,1014.38
2017-05-22T14:27:22.293Z,1014.38
2017-05-22T14:28:34.544Z,1014.39
2017-05-22T14:29:46.868Z,1014.39
2017-05-22T14:30:59.442Z,1014.34
2017-05-22T14:32:11.410Z,1014.35
2017-05-22T14:33:23.698Z,1014.31
2017-05-22T14:34:36.269Z,1014.33
2017-05-22T14:35:48.864Z,1014.21
2017-05-22T14:37:00.869Z,1014.16
2017-05-22T14:38:13.470Z,1014.14
2017-05-22T14:39:26.053Z,1014.14